sensor_id;sensor_type;location;lat;lon;timestamp;P1;durP1;ratioP1;P2;durP2;ratioP2
21562;SDS011;10942;47.894;11.424;2024-03-06T00:01:53;9.57;;;7.05;;
21562;SDS011;10942;47.894;11.424;2024-03-06T00:04:20;9.30;;;6.15;;
21562;SDS011;10942;47.894;11.424;2024-03-06T00:06:46;9.85;;;6.78;;
21562;SDS011;10942;47.894;11.424;2024-03-06T00:09:12;9.88;;;7.38;;
21562;SDS011;10942;47.894;11.424;2024-03-06T00:11:38;10.13;;;6.88;;
21562;SDS011;10942;47.894;11.424;2024-03-06T00:14:05;10.55;;;6.95;;
21562;SDS011;10942;47.894;11.424;2024-03-06T00:16:31;8.70;;;6.45;;
21562;SDS011;10942;47.894;11.424;2024-03-06T00:18:57;9.77;;;6.32;;
21562;SDS011;10942;47.894;11.424;2024-03-06T00:21:23;8.95;;;6.30;;
21562;SDS011;10942;47.894;11.424;2024-03-06T00:23:49;8.25;;;5.82;;
21562;SDS011;10942;47.894;11.424;2024-03-06T00:26:16;6.97;;;4.93;;
21562;SDS011;10942;47.894;11.424;2024-03-06T00:28:42;7.05;;;4.68;;
21562;SDS011;10942;47.894;11.424;2024-03-06T00:31:08;6.35;;;4.60;;
21562;SDS011;10942;47.894;11.424;2024-03-06T00:33:34;6.93;;;4.80;;
21562;SDS011;10942;47.894;11.424;2024-03-06T00:36:00;6.45;;;4.15;;
21562;SDS011;10942;47.894;11.424;2024-03-06T00:38:26;6.35;;;4.35;;
21562;SDS011;10942;47.894;11.424;2024-03-06T00:40:52;5.97;;;4.05;;
21562;SDS011;10942;47.894;11.424;2024-03-06T00:43:18;5.88;;;3.92;;
21562;SDS011;10942;47.894;11.424;2024-03-06T00:45:45;6.85;;;3.92;;
21562;SDS011;10942;47.894;11.424;2024-03-06T00:48:11;4.38;;;3.20;;
21562;SDS011;10942;47.894;11.424;2024-03-06T00:50:37;4.82;;;2.67;;
21562;SDS011;10942;47.894;11.424;2024-03-06T00:53:03;3.45;;;2.50;;
21562;SDS011;10942;47.894;11.424;2024-03-06T00:55:29;4.78;;;3.03;;
21562;SDS011;10942;47.894;11.424;2024-03-06T00:57:55;3.88;;;2.92;;
21562;SDS011;10942;47.894;11.424;2024-03-06T01:00:21;4.50;;;2.72;;
21562;SDS011;10942;47.894;11.424;2024-03-06T01:02:48;4.25;;;2.90;;
21562;SDS011;10942;47.894;11.424;2024-03-06T01:05:14;5.22;;;2.80;;
21562;SDS011;10942;47.894;11.424;2024-03-06T01:07:40;4.55;;;3.05;;
21562;SDS011;10942;47.894;11.424;2024-03-06T01:10:06;3.70;;;2.05;;
21562;SDS011;10942;47.894;11.424;2024-03-06T01:12:33;2.83;;;1.90;;
21562;SDS011;10942;47.894;11.424;2024-03-06T01:14:59;3.08;;;1.92;;
21562;SDS011;10942;47.894;11.424;2024-03-06T01:17:25;2.92;;;1.90;;
21562;SDS011;10942;47.894;11.424;2024-03-06T01:19:51;3.10;;;1.90;;
21562;SDS011;10942;47.894;11.424;2024-03-06T01:22:17;2.63;;;1.75;;
21562;SDS011;10942;47.894;11.424;2024-03-06T01:24:44;2.15;;;1.60;;
21562;SDS011;10942;47.894;11.424;2024-03-06T01:27:10;3.15;;;2.00;;
21562;SDS011;10942;47.894;11.424;2024-03-06T01:29:36;3.40;;;1.88;;
21562;SDS011;10942;47.894;11.424;2024-03-06T01:32:02;2.70;;;1.80;;
21562;SDS011;10942;47.894;11.424;2024-03-06T01:34:29;3.13;;;1.92;;
21562;SDS011;10942;47.894;11.424;2024-03-06T01:36:55;3.33;;;2.17;;
21562;SDS011;10942;47.894;11.424;2024-03-06T01:39:21;2.42;;;1.70;;
21562;SDS011;10942;47.894;11.424;2024-03-06T01:41:47;2.03;;;1.50;;
21562;SDS011;10942;47.894;11.424;2024-03-06T01:44:14;2.47;;;1.55;;
21562;SDS011;10942;47.894;11.424;2024-03-06T01:46:40;2.63;;;1.70;;
21562;SDS011;10942;47.894;11.424;2024-03-06T01:49:07;3.05;;;1.83;;
21562;SDS011;10942;47.894;11.424;2024-03-06T01:51:33;2.00;;;1.23;;
21562;SDS011;10942;47.894;11.424;2024-03-06T01:54:00;3.45;;;1.52;;
21562;SDS011;10942;47.894;11.424;2024-03-06T01:56:29;2.58;;;1.60;;
21562;SDS011;10942;47.894;11.424;2024-03-06T01:58:55;2.10;;;1.50;;
21562;SDS011;10942;47.894;11.424;2024-03-06T02:01:22;2.05;;;1.30;;
21562;SDS011;10942;47.894;11.424;2024-03-06T02:03:48;1.80;;;1.33;;
21562;SDS011;10942;47.894;11.424;2024-03-06T02:06:14;2.50;;;1.60;;
21562;SDS011;10942;47.894;11.424;2024-03-06T02:08:45;2.05;;;1.38;;
21562;SDS011;10942;47.894;11.424;2024-03-06T02:11:11;2.10;;;1.30;;
21562;SDS011;10942;47.894;11.424;2024-03-06T02:13:41;2.40;;;1.60;;
21562;SDS011;10942;47.894;11.424;2024-03-06T02:16:07;1.83;;;1.20;;
21562;SDS011;10942;47.894;11.424;2024-03-06T02:18:33;1.73;;;1.20;;
21562;SDS011;10942;47.894;11.424;2024-03-06T02:20:59;2.35;;;1.25;;
21562;SDS011;10942;47.894;11.424;2024-03-06T02:23:26;1.95;;;1.13;;
21562;SDS011;10942;47.894;11.424;2024-03-06T02:25:52;2.38;;;1.40;;
21562;SDS011;10942;47.894;11.424;2024-03-06T02:28:18;1.58;;;1.00;;
21562;SDS011;10942;47.894;11.424;2024-03-06T02:30:44;1.33;;;1.00;;
21562;SDS011;10942;47.894;11.424;2024-03-06T02:33:10;1.92;;;1.15;;
21562;SDS011;10942;47.894;11.424;2024-03-06T02:35:36;1.80;;;1.15;;
21562;SDS011;10942;47.894;11.424;2024-03-06T02:38:04;1.48;;;1.00;;
21562;SDS011;10942;47.894;11.424;2024-03-06T02:40:31;1.55;;;1.00;;
21562;SDS011;10942;47.894;11.424;2024-03-06T02:42:57;1.50;;;0.95;;
21562;SDS011;10942;47.894;11.424;2024-03-06T02:45:23;1.58;;;1.20;;
21562;SDS011;10942;47.894;11.424;2024-03-06T02:47:48;1.92;;;1.10;;
21562;SDS011;10942;47.894;11.424;2024-03-06T02:50:14;1.65;;;1.23;;
21562;SDS011;10942;47.894;11.424;2024-03-06T02:52:40;2.63;;;1.10;;
21562;SDS011;10942;47.894;11.424;2024-03-06T02:55:06;1.65;;;1.10;;
21562;SDS011;10942;47.894;11.424;2024-03-06T02:57:32;1.70;;;1.10;;
21562;SDS011;10942;47.894;11.424;2024-03-06T02:59:57;1.23;;;0.80;;
21562;SDS011;10942;47.894;11.424;2024-03-06T03:02:24;1.15;;;0.70;;
21562;SDS011;10942;47.894;11.424;2024-03-06T03:04:50;1.02;;;0.70;;
21562;SDS011;10942;47.894;11.424;2024-03-06T03:07:17;1.40;;;0.93;;
21562;SDS011;10942;47.894;11.424;2024-03-06T03:09:45;0.95;;;0.70;;
21562;SDS011;10942;47.894;11.424;2024-03-06T03:12:10;1.25;;;0.70;;
21562;SDS011;10942;47.894;11.424;2024-03-06T03:14:36;1.00;;;0.80;;
21562;SDS011;10942;47.894;11.424;2024-03-06T03:17:02;1.02;;;0.70;;
21562;SDS011;10942;47.894;11.424;2024-03-06T03:19:30;1.92;;;0.93;;
21562;SDS011;10942;47.894;11.424;2024-03-06T03:21:56;1.30;;;0.80;;
21562;SDS011;10942;47.894;11.424;2024-03-06T03:24:23;1.55;;;1.00;;
21562;SDS011;10942;47.894;11.424;2024-03-06T03:26:51;1.20;;;0.80;;
21562;SDS011;10942;47.894;11.424;2024-03-06T03:29:17;1.33;;;0.80;;
21562;SDS011;10942;47.894;11.424;2024-03-06T03:31:43;0.98;;;0.70;;
21562;SDS011;10942;47.894;11.424;2024-03-06T03:34:08;0.93;;;0.68;;
21562;SDS011;10942;47.894;11.424;2024-03-06T03:36:39;1.08;;;0.70;;
21562;SDS011;10942;47.894;11.424;2024-03-06T03:39:06;0.90;;;0.60;;
21562;SDS011;10942;47.894;11.424;2024-03-06T03:41:36;1.05;;;0.70;;
21562;SDS011;10942;47.894;11.424;2024-03-06T03:44:02;1.15;;;0.63;;
21562;SDS011;10942;47.894;11.424;2024-03-06T03:46:29;1.00;;;0.77;;
21562;SDS011;10942;47.894;11.424;2024-03-06T03:48:54;1.50;;;0.73;;
21562;SDS011;10942;47.894;11.424;2024-03-06T03:51:20;1.50;;;0.80;;
21562;SDS011;10942;47.894;11.424;2024-03-06T03:53:46;1.63;;;0.95;;
21562;SDS011;10942;47.894;11.424;2024-03-06T03:56:15;1.48;;;0.82;;
21562;SDS011;10942;47.894;11.424;2024-03-06T03:58:41;1.20;;;0.75;;
21562;SDS011;10942;47.894;11.424;2024-03-06T04:01:09;2.10;;;0.73;;
21562;SDS011;10942;47.894;11.424;2024-03-06T04:03:38;1.13;;;0.65;;
21562;SDS011;10942;47.894;11.424;2024-03-06T04:06:03;1.25;;;0.70;;
21562;SDS011;10942;47.894;11.424;2024-03-06T04:08:29;0.95;;;0.60;;
21562;SDS011;10942;47.894;11.424;2024-03-06T04:10:55;1.25;;;0.70;;
21562;SDS011;10942;47.894;11.424;2024-03-06T04:13:20;1.48;;;0.98;;
21562;SDS011;10942;47.894;11.424;2024-03-06T04:15:46;1.38;;;0.70;;
21562;SDS011;10942;47.894;11.424;2024-03-06T04:18:12;1.67;;;0.80;;
21562;SDS011;10942;47.894;11.424;2024-03-06T04:20:38;2.30;;;0.70;;
21562;SDS011;10942;47.894;11.424;2024-03-06T04:23:03;0.77;;;0.55;;
21562;SDS011;10942;47.894;11.424;2024-03-06T04:25:29;0.85;;;0.45;;
21562;SDS011;10942;47.894;11.424;2024-03-06T04:27:55;0.82;;;0.50;;
21562;SDS011;10942;47.894;11.424;2024-03-06T04:30:21;0.90;;;0.60;;
21562;SDS011;10942;47.894;11.424;2024-03-06T04:32:47;1.13;;;0.70;;
21562;SDS011;10942;47.894;11.424;2024-03-06T04:35:12;2.03;;;1.00;;
21562;SDS011;10942;47.894;11.424;2024-03-06T04:37:38;1.15;;;0.50;;
21562;SDS011;10942;47.894;11.424;2024-03-06T04:40:04;1.35;;;0.73;;
21562;SDS011;10942;47.894;11.424;2024-03-06T04:42:36;0.80;;;0.60;;
21562;SDS011;10942;47.894;11.424;2024-03-06T04:45:11;1.60;;;0.90;;
21562;SDS011;10942;47.894;11.424;2024-03-06T04:47:40;1.13;;;0.60;;
21562;SDS011;10942;47.894;11.424;2024-03-06T04:50:09;0.88;;;0.52;;
21562;SDS011;10942;47.894;11.424;2024-03-06T04:52:36;1.10;;;0.60;;
21562;SDS011;10942;47.894;11.424;2024-03-06T04:55:02;1.10;;;0.60;;
21562;SDS011;10942;47.894;11.424;2024-03-06T04:57:28;1.15;;;0.40;;
21562;SDS011;10942;47.894;11.424;2024-03-06T04:59:54;0.70;;;0.47;;
21562;SDS011;10942;47.894;11.424;2024-03-06T05:02:19;0.70;;;0.50;;
21562;SDS011;10942;47.894;11.424;2024-03-06T05:04:45;0.85;;;0.50;;
21562;SDS011;10942;47.894;11.424;2024-03-06T05:07:12;1.25;;;0.50;;
21562;SDS011;10942;47.894;11.424;2024-03-06T05:09:38;0.60;;;0.40;;
21562;SDS011;10942;47.894;11.424;2024-03-06T05:12:06;0.88;;;0.57;;
21562;SDS011;10942;47.894;11.424;2024-03-06T05:14:33;0.63;;;0.35;;
21562;SDS011;10942;47.894;11.424;2024-03-06T05:16:59;0.75;;;0.40;;
21562;SDS011;10942;47.894;11.424;2024-03-06T05:19:24;0.45;;;0.30;;
21562;SDS011;10942;47.894;11.424;2024-03-06T05:24:23;1.70;;;0.90;;
21562;SDS011;10942;47.894;11.424;2024-03-06T05:26:49;0.82;;;0.65;;
21562;SDS011;10942;47.894;11.424;2024-03-06T05:29:14;1.50;;;0.82;;
21562;SDS011;10942;47.894;11.424;2024-03-06T05:31:40;1.58;;;0.90;;
21562;SDS011;10942;47.894;11.424;2024-03-06T05:34:06;0.63;;;0.50;;
21562;SDS011;10942;47.894;11.424;2024-03-06T05:36:31;0.98;;;0.85;;
21562;SDS011;10942;47.894;11.424;2024-03-06T05:38:57;1.33;;;1.00;;
21562;SDS011;10942;47.894;11.424;2024-03-06T05:41:23;1.15;;;1.02;;
21562;SDS011;10942;47.894;11.424;2024-03-06T05:43:49;1.67;;;1.10;;
21562;SDS011;10942;47.894;11.424;2024-03-06T05:46:14;2.03;;;1.10;;
21562;SDS011;10942;47.894;11.424;2024-03-06T05:48:41;1.67;;;1.10;;
21562;SDS011;10942;47.894;11.424;2024-03-06T05:51:07;1.30;;;0.90;;
21562;SDS011;10942;47.894;11.424;2024-03-06T05:53:39;0.75;;;0.63;;
21562;SDS011;10942;47.894;11.424;2024-03-06T05:56:07;1.17;;;0.73;;
21562;SDS011;10942;47.894;11.424;2024-03-06T05:58:33;0.70;;;0.68;;
21562;SDS011;10942;47.894;11.424;2024-03-06T06:01:02;0.90;;;0.57;;
21562;SDS011;10942;47.894;11.424;2024-03-06T06:03:31;0.68;;;0.68;;
21562;SDS011;10942;47.894;11.424;2024-03-06T06:05:57;0.85;;;0.60;;
21562;SDS011;10942;47.894;11.424;2024-03-06T06:08:23;1.08;;;0.70;;
21562;SDS011;10942;47.894;11.424;2024-03-06T06:10:49;3.10;;;1.40;;
21562;SDS011;10942;47.894;11.424;2024-03-06T06:13:17;8.48;;;5.05;;
21562;SDS011;10942;47.894;11.424;2024-03-06T06:15:43;1.60;;;0.93;;
21562;SDS011;10942;47.894;11.424;2024-03-06T06:18:09;1.35;;;0.77;;
21562;SDS011;10942;47.894;11.424;2024-03-06T06:20:35;2.35;;;0.90;;
21562;SDS011;10942;47.894;11.424;2024-03-06T06:23:01;3.45;;;1.42;;
21562;SDS011;10942;47.894;11.424;2024-03-06T06:25:26;1.75;;;1.00;;
21562;SDS011;10942;47.894;11.424;2024-03-06T06:27:52;2.17;;;1.42;;
21562;SDS011;10942;47.894;11.424;2024-03-06T06:30:18;2.42;;;0.63;;
21562;SDS011;10942;47.894;11.424;2024-03-06T06:32:44;0.93;;;0.50;;
21562;SDS011;10942;47.894;11.424;2024-03-06T06:35:10;7.05;;;3.80;;
21562;SDS011;10942;47.894;11.424;2024-03-06T06:37:39;1.52;;;1.20;;
21562;SDS011;10942;47.894;11.424;2024-03-06T06:40:06;1.73;;;0.90;;
21562;SDS011;10942;47.894;11.424;2024-03-06T06:42:33;1.60;;;0.80;;
21562;SDS011;10942;47.894;11.424;2024-03-06T06:44:59;1.35;;;0.90;;
21562;SDS011;10942;47.894;11.424;2024-03-06T06:47:25;0.95;;;0.73;;
21562;SDS011;10942;47.894;11.424;2024-03-06T06:49:52;3.42;;;1.75;;
21562;SDS011;10942;47.894;11.424;2024-03-06T06:52:17;1.23;;;0.90;;
21562;SDS011;10942;47.894;11.424;2024-03-06T06:54:44;0.90;;;0.68;;
21562;SDS011;10942;47.894;11.424;2024-03-06T06:57:10;1.73;;;0.60;;
21562;SDS011;10942;47.894;11.424;2024-03-06T06:59:36;0.70;;;0.50;;
21562;SDS011;10942;47.894;11.424;2024-03-06T07:02:02;1.00;;;0.73;;
21562;SDS011;10942;47.894;11.424;2024-03-06T07:04:28;0.90;;;0.60;;
21562;SDS011;10942;47.894;11.424;2024-03-06T07:06:53;0.73;;;0.57;;
21562;SDS011;10942;47.894;11.424;2024-03-06T07:09:19;1.60;;;0.55;;
21562;SDS011;10942;47.894;11.424;2024-03-06T07:11:45;0.88;;;0.68;;
21562;SDS011;10942;47.894;11.424;2024-03-06T07:14:14;1.50;;;0.70;;
21562;SDS011;10942;47.894;11.424;2024-03-06T07:16:43;1.55;;;1.00;;
21562;SDS011;10942;47.894;11.424;2024-03-06T07:19:09;2.00;;;1.15;;
21562;SDS011;10942;47.894;11.424;2024-03-06T07:21:35;2.33;;;0.70;;
21562;SDS011;10942;47.894;11.424;2024-03-06T07:24:01;1.65;;;0.73;;
21562;SDS011;10942;47.894;11.424;2024-03-06T07:26:27;1.70;;;0.98;;
21562;SDS011;10942;47.894;11.424;2024-03-06T07:28:55;1.25;;;0.68;;
21562;SDS011;10942;47.894;11.424;2024-03-06T07:31:21;1.30;;;0.70;;
21562;SDS011;10942;47.894;11.424;2024-03-06T07:33:46;1.25;;;0.75;;
21562;SDS011;10942;47.894;11.424;2024-03-06T07:36:12;1.23;;;0.80;;
21562;SDS011;10942;47.894;11.424;2024-03-06T07:38:38;1.15;;;0.75;;
21562;SDS011;10942;47.894;11.424;2024-03-06T07:41:03;2.53;;;0.60;;
21562;SDS011;10942;47.894;11.424;2024-03-06T07:43:29;2.65;;;2.08;;
21562;SDS011;10942;47.894;11.424;2024-03-06T07:45:55;2.00;;;0.90;;
21562;SDS011;10942;47.894;11.424;2024-03-06T07:48:20;1.48;;;0.88;;
21562;SDS011;10942;47.894;11.424;2024-03-06T07:50:46;3.53;;;1.20;;
21562;SDS011;10942;47.894;11.424;2024-03-06T07:53:12;2.22;;;1.10;;
21562;SDS011;10942;47.894;11.424;2024-03-06T07:55:37;1.85;;;1.00;;
21562;SDS011;10942;47.894;11.424;2024-03-06T07:58:04;1.00;;;0.70;;
21562;SDS011;10942;47.894;11.424;2024-03-06T08:00:30;1.30;;;0.70;;
21562;SDS011;10942;47.894;11.424;2024-03-06T08:02:56;0.90;;;0.60;;
21562;SDS011;10942;47.894;11.424;2024-03-06T08:05:22;1.58;;;1.05;;
21562;SDS011;10942;47.894;11.424;2024-03-06T08:07:48;1.55;;;1.00;;
21562;SDS011;10942;47.894;11.424;2024-03-06T08:10:13;1.05;;;0.82;;
21562;SDS011;10942;47.894;11.424;2024-03-06T08:12:43;2.75;;;0.90;;
21562;SDS011;10942;47.894;11.424;2024-03-06T08:15:11;0.50;;;0.50;;
21562;SDS011;10942;47.894;11.424;2024-03-06T08:17:47;2.83;;;0.85;;
21562;SDS011;10942;47.894;11.424;2024-03-06T08:20:14;1.58;;;0.80;;
21562;SDS011;10942;47.894;11.424;2024-03-06T08:22:41;0.73;;;0.52;;
21562;SDS011;10942;47.894;11.424;2024-03-06T08:25:07;1.15;;;0.73;;
21562;SDS011;10942;47.894;11.424;2024-03-06T08:27:34;1.20;;;0.70;;
21562;SDS011;10942;47.894;11.424;2024-03-06T08:30:05;1.08;;;0.75;;
21562;SDS011;10942;47.894;11.424;2024-03-06T08:32:32;1.58;;;0.90;;
21562;SDS011;10942;47.894;11.424;2024-03-06T08:35:02;1.45;;;0.60;;
21562;SDS011;10942;47.894;11.424;2024-03-06T08:37:31;0.80;;;0.55;;
21562;SDS011;10942;47.894;11.424;2024-03-06T08:40:00;1.80;;;0.65;;
21562;SDS011;10942;47.894;11.424;2024-03-06T08:42:27;3.30;;;1.55;;
21562;SDS011;10942;47.894;11.424;2024-03-06T08:44:53;4.22;;;2.42;;
21562;SDS011;10942;47.894;11.424;2024-03-06T08:47:19;3.47;;;1.50;;
21562;SDS011;10942;47.894;11.424;2024-03-06T08:49:45;5.95;;;3.13;;
21562;SDS011;10942;47.894;11.424;2024-03-06T08:52:11;7.72;;;3.70;;
21562;SDS011;10942;47.894;11.424;2024-03-06T08:54:36;6.30;;;3.08;;
21562;SDS011;10942;47.894;11.424;2024-03-06T08:57:02;10.32;;;5.35;;
21562;SDS011;10942;47.894;11.424;2024-03-06T08:59:29;8.60;;;4.05;;
21562;SDS011;10942;47.894;11.424;2024-03-06T09:01:55;4.57;;;1.90;;
21562;SDS011;10942;47.894;11.424;2024-03-06T09:04:21;2.22;;;1.40;;
21562;SDS011;10942;47.894;11.424;2024-03-06T09:06:47;1.55;;;0.90;;
21562;SDS011;10942;47.894;11.424;2024-03-06T09:09:14;1.98;;;1.10;;
21562;SDS011;10942;47.894;11.424;2024-03-06T09:11:43;2.00;;;1.10;;
21562;SDS011;10942;47.894;11.424;2024-03-06T09:14:09;1.45;;;1.00;;
21562;SDS011;10942;47.894;11.424;2024-03-06T09:16:35;2.05;;;1.10;;
21562;SDS011;10942;47.894;11.424;2024-03-06T09:19:01;1.38;;;1.00;;
21562;SDS011;10942;47.894;11.424;2024-03-06T09:21:27;2.72;;;1.42;;
21562;SDS011;10942;47.894;11.424;2024-03-06T09:23:53;2.67;;;1.30;;
21562;SDS011;10942;47.894;11.424;2024-03-06T09:26:19;3.17;;;1.77;;
21562;SDS011;10942;47.894;11.424;2024-03-06T09:28:48;2.70;;;1.52;;
21562;SDS011;10942;47.894;11.424;2024-03-06T09:31:14;3.33;;;1.92;;
21562;SDS011;10942;47.894;11.424;2024-03-06T09:33:40;3.22;;;1.90;;
21562;SDS011;10942;47.894;11.424;2024-03-06T09:36:06;5.60;;;2.40;;
21562;SDS011;10942;47.894;11.424;2024-03-06T09:38:32;6.65;;;3.72;;
21562;SDS011;10942;47.894;11.424;2024-03-06T09:40:58;5.20;;;3.10;;
21562;SDS011;10942;47.894;11.424;2024-03-06T09:43:23;5.88;;;3.50;;
21562;SDS011;10942;47.894;11.424;2024-03-06T09:45:50;6.40;;;3.58;;
21562;SDS011;10942;47.894;11.424;2024-03-06T09:48:18;3.10;;;1.65;;
21562;SDS011;10942;47.894;11.424;2024-03-06T09:50:46;2.22;;;1.70;;
21562;SDS011;10942;47.894;11.424;2024-03-06T09:53:15;3.15;;;1.70;;
21562;SDS011;10942;47.894;11.424;2024-03-06T09:55:42;1.77;;;1.20;;
21562;SDS011;10942;47.894;11.424;2024-03-06T09:58:08;3.70;;;1.10;;
21562;SDS011;10942;47.894;11.424;2024-03-06T10:00:37;1.67;;;1.15;;
21562;SDS011;10942;47.894;11.424;2024-03-06T10:03:03;1.83;;;1.10;;
21562;SDS011;10942;47.894;11.424;2024-03-06T10:05:30;3.15;;;1.30;;
21562;SDS011;10942;47.894;11.424;2024-03-06T10:07:59;0.85;;;0.70;;
21562;SDS011;10942;47.894;11.424;2024-03-06T10:10:25;1.90;;;1.10;;
21562;SDS011;10942;47.894;11.424;2024-03-06T10:12:52;4.78;;;2.63;;
21562;SDS011;10942;47.894;11.424;2024-03-06T10:15:18;3.30;;;1.90;;
21562;SDS011;10942;47.894;11.424;2024-03-06T10:17:44;2.60;;;1.38;;
21562;SDS011;10942;47.894;11.424;2024-03-06T10:20:17;3.17;;;1.58;;
21562;SDS011;10942;47.894;11.424;2024-03-06T10:22:51;3.03;;;1.80;;
21562;SDS011;10942;47.894;11.424;2024-03-06T10:25:18;4.32;;;2.30;;
21562;SDS011;10942;47.894;11.424;2024-03-06T10:30:34;2.88;;;1.60;;
21562;SDS011;10942;47.894;11.424;2024-03-06T10:33:07;2.85;;;1.50;;
21562;SDS011;10942;47.894;11.424;2024-03-06T10:35:36;4.45;;;2.55;;
21562;SDS011;10942;47.894;11.424;2024-03-06T10:38:05;2.33;;;1.30;;
21562;SDS011;10942;47.894;11.424;2024-03-06T10:40:33;2.42;;;1.20;;
21562;SDS011;10942;47.894;11.424;2024-03-06T10:43:00;2.42;;;1.10;;
21562;SDS011;10942;47.894;11.424;2024-03-06T10:45:48;3.72;;;2.00;;
21562;SDS011;10942;47.894;11.424;2024-03-06T10:48:19;1.90;;;1.00;;
21562;SDS011;10942;47.894;11.424;2024-03-06T10:50:45;1.38;;;0.70;;
21562;SDS011;10942;47.894;11.424;2024-03-06T10:53:12;2.85;;;1.63;;
21562;SDS011;10942;47.894;11.424;2024-03-06T10:55:40;5.38;;;2.78;;
21562;SDS011;10942;47.894;11.424;2024-03-06T10:58:09;2.83;;;1.70;;
21562;SDS011;10942;47.894;11.424;2024-03-06T11:00:45;3.13;;;1.63;;
21562;SDS011;10942;47.894;11.424;2024-03-06T11:03:12;1.83;;;1.23;;
21562;SDS011;10942;47.894;11.424;2024-03-06T11:05:39;1.00;;;0.70;;
21562;SDS011;10942;47.894;11.424;2024-03-06T11:08:11;1.80;;;1.00;;
21562;SDS011;10942;47.894;11.424;2024-03-06T11:10:39;9.85;;;4.15;;
21562;SDS011;10942;47.894;11.424;2024-03-06T11:13:24;3.40;;;2.03;;
21562;SDS011;10942;47.894;11.424;2024-03-06T11:15:56;2.78;;;1.00;;
21562;SDS011;10942;47.894;11.424;2024-03-06T11:23:34;2.47;;;1.70;;
21562;SDS011;10942;47.894;11.424;2024-03-06T11:26:03;1.25;;;0.90;;
21562;SDS011;10942;47.894;11.424;2024-03-06T11:28:34;1.83;;;0.90;;
21562;SDS011;10942;47.894;11.424;2024-03-06T11:33:28;1.30;;;0.45;;
21562;SDS011;10942;47.894;11.424;2024-03-06T11:36:15;1.20;;;0.77;;
21562;SDS011;10942;47.894;11.424;2024-03-06T11:41:26;1.33;;;0.85;;
21562;SDS011;10942;47.894;11.424;2024-03-06T11:43:53;0.93;;;0.60;;
21562;SDS011;10942;47.894;11.424;2024-03-06T11:46:21;0.60;;;0.52;;
21562;SDS011;10942;47.894;11.424;2024-03-06T11:49:05;1.02;;;0.68;;
21562;SDS011;10942;47.894;11.424;2024-03-06T11:51:57;1.98;;;1.50;;
21562;SDS011;10942;47.894;11.424;2024-03-06T11:54:29;0.80;;;0.63;;
21562;SDS011;10942;47.894;11.424;2024-03-06T11:56:55;1.63;;;0.90;;
21562;SDS011;10942;47.894;11.424;2024-03-06T11:59:26;0.70;;;0.55;;
21562;SDS011;10942;47.894;11.424;2024-03-06T12:01:53;0.85;;;0.50;;
21562;SDS011;10942;47.894;11.424;2024-03-06T12:04:20;1.45;;;0.70;;
21562;SDS011;10942;47.894;11.424;2024-03-06T12:06:47;0.55;;;0.50;;
21562;SDS011;10942;47.894;11.424;2024-03-06T12:09:14;0.80;;;0.60;;
21562;SDS011;10942;47.894;11.424;2024-03-06T12:11:40;1.40;;;0.73;;
21562;SDS011;10942;47.894;11.424;2024-03-06T12:14:19;1.75;;;0.80;;
21562;SDS011;10942;47.894;11.424;2024-03-06T12:16:56;0.70;;;0.50;;
21562;SDS011;10942;47.894;11.424;2024-03-06T12:19:25;1.10;;;0.50;;
21562;SDS011;10942;47.894;11.424;2024-03-06T12:21:53;0.77;;;0.60;;
21562;SDS011;10942;47.894;11.424;2024-03-06T12:24:19;2.50;;;0.90;;
21562;SDS011;10942;47.894;11.424;2024-03-06T12:26:44;3.60;;;1.70;;
21562;SDS011;10942;47.894;11.424;2024-03-06T12:29:16;1.60;;;0.90;;
21562;SDS011;10942;47.894;11.424;2024-03-06T12:31:44;1.95;;;0.73;;
21562;SDS011;10942;47.894;11.424;2024-03-06T12:34:13;1.25;;;0.55;;
21562;SDS011;10942;47.894;11.424;2024-03-06T12:36:42;2.42;;;1.10;;
21562;SDS011;10942;47.894;11.424;2024-03-06T12:39:08;1.70;;;0.80;;
21562;SDS011;10942;47.894;11.424;2024-03-06T12:41:41;2.70;;;1.55;;
21562;SDS011;10942;47.894;11.424;2024-03-06T12:44:07;1.55;;;0.90;;
21562;SDS011;10942;47.894;11.424;2024-03-06T12:46:33;1.60;;;0.80;;
21562;SDS011;10942;47.894;11.424;2024-03-06T12:48:58;1.25;;;0.60;;
21562;SDS011;10942;47.894;11.424;2024-03-06T12:51:24;3.20;;;1.25;;
21562;SDS011;10942;47.894;11.424;2024-03-06T12:53:50;1.85;;;0.95;;
21562;SDS011;10942;47.894;11.424;2024-03-06T12:56:16;1.95;;;1.20;;
21562;SDS011;10942;47.894;11.424;2024-03-06T12:58:42;2.72;;;1.00;;
21562;SDS011;10942;47.894;11.424;2024-03-06T13:01:09;1.35;;;0.80;;
21562;SDS011;10942;47.894;11.424;2024-03-06T13:03:35;0.80;;;0.40;;
21562;SDS011;10942;47.894;11.424;2024-03-06T13:06:02;1.88;;;0.60;;
21562;SDS011;10942;47.894;11.424;2024-03-06T13:08:29;1.13;;;0.70;;
21562;SDS011;10942;47.894;11.424;2024-03-06T13:10:55;1.02;;;0.63;;
21562;SDS011;10942;47.894;11.424;2024-03-06T13:13:21;1.52;;;0.73;;
21562;SDS011;10942;47.894;11.424;2024-03-06T13:15:49;0.85;;;0.60;;
21562;SDS011;10942;47.894;11.424;2024-03-06T13:18:15;0.93;;;0.60;;
21562;SDS011;10942;47.894;11.424;2024-03-06T13:20:42;1.30;;;0.70;;
21562;SDS011;10942;47.894;11.424;2024-03-06T13:23:08;1.10;;;0.60;;
21562;SDS011;10942;47.894;11.424;2024-03-06T13:25:34;1.45;;;0.68;;
21562;SDS011;10942;47.894;11.424;2024-03-06T13:28:00;0.70;;;0.50;;
21562;SDS011;10942;47.894;11.424;2024-03-06T13:30:26;1.13;;;0.50;;
21562;SDS011;10942;47.894;11.424;2024-03-06T13:32:53;1.48;;;0.50;;
21562;SDS011;10942;47.894;11.424;2024-03-06T13:35:19;0.50;;;0.43;;
21562;SDS011;10942;47.894;11.424;2024-03-06T13:37:45;0.88;;;0.60;;
21562;SDS011;10942;47.894;11.424;2024-03-06T13:40:11;0.65;;;0.50;;
21562;SDS011;10942;47.894;11.424;2024-03-06T13:42:41;0.52;;;0.50;;
21562;SDS011;10942;47.894;11.424;2024-03-06T13:45:07;1.17;;;0.63;;
21562;SDS011;10942;47.894;11.424;2024-03-06T13:47:45;0.52;;;0.52;;
21562;SDS011;10942;47.894;11.424;2024-03-06T13:50:12;0.68;;;0.50;;
21562;SDS011;10942;47.894;11.424;2024-03-06T13:52:40;1.98;;;0.60;;
21562;SDS011;10942;47.894;11.424;2024-03-06T13:55:06;0.88;;;0.60;;
21562;SDS011;10942;47.894;11.424;2024-03-06T13:57:33;1.15;;;0.57;;
21562;SDS011;10942;47.894;11.424;2024-03-06T14:00:09;1.05;;;0.60;;
21562;SDS011;10942;47.894;11.424;2024-03-06T14:02:42;1.23;;;0.82;;
21562;SDS011;10942;47.894;11.424;2024-03-06T14:05:12;0.90;;;0.70;;
21562;SDS011;10942;47.894;11.424;2024-03-06T14:07:39;0.90;;;0.70;;
21562;SDS011;10942;47.894;11.424;2024-03-06T14:10:05;1.60;;;0.85;;
21562;SDS011;10942;47.894;11.424;2024-03-06T14:12:33;1.80;;;0.80;;
21562;SDS011;10942;47.894;11.424;2024-03-06T14:15:00;0.60;;;0.60;;
21562;SDS011;10942;47.894;11.424;2024-03-06T14:17:26;1.58;;;0.80;;
21562;SDS011;10942;47.894;11.424;2024-03-06T14:19:52;1.33;;;0.90;;
21562;SDS011;10942;47.894;11.424;2024-03-06T14:22:18;1.30;;;0.90;;
21562;SDS011;10942;47.894;11.424;2024-03-06T14:24:43;0.73;;;0.60;;
21562;SDS011;10942;47.894;11.424;2024-03-06T14:27:10;0.93;;;0.70;;
21562;SDS011;10942;47.894;11.424;2024-03-06T14:29:35;1.20;;;0.80;;
21562;SDS011;10942;47.894;11.424;2024-03-06T14:32:01;0.63;;;0.57;;
21562;SDS011;10942;47.894;11.424;2024-03-06T14:34:27;1.52;;;0.80;;
21562;SDS011;10942;47.894;11.424;2024-03-06T14:36:53;1.00;;;0.70;;
21562;SDS011;10942;47.894;11.424;2024-03-06T14:39:19;1.25;;;0.80;;
21562;SDS011;10942;47.894;11.424;2024-03-06T14:41:48;2.08;;;1.00;;
21562;SDS011;10942;47.894;11.424;2024-03-06T14:44:13;1.40;;;0.93;;
21562;SDS011;10942;47.894;11.424;2024-03-06T14:46:42;0.80;;;0.80;;
21562;SDS011;10942;47.894;11.424;2024-03-06T14:49:08;1.35;;;1.13;;